Staraja Russa, Russia
Current Conditions -  °F | °C
As of 5:00 PM on Wednesday 22 Oct 2014 (Local Time) from ULOO Reporting Station
Clear Clear  
Wind Chill: 28°   Ceiling: Unl
Heat Index: 32°   Visibility: 4mi
Dew Point: 21°   Wind: 4mph
Humidity: 64%   Direction: 50°NE
Pressure: 30.12"   Gusts: NA
Location:  57.99°N, 31.36°E
Report Text: ULOO 221400Z 05002MPS P6000 NSC M00/M06 Q1020 19090070 NOSIGRMK QFE761
Loading
Personal Weather Stations






























Interactive Weather Map
Tropical Storm Tracking
New forecast layout! Learn more

10-Day Weather Forecast

Advertisements
Track Severe Weather on mobile